createdAt,value
2022-12-25T00:00:42.428Z,4.95
2022-12-25T00:03:09.102Z,4.97
2022-12-25T00:05:39.090Z,5.05
2022-12-25T00:08:06.960Z,4.93
2022-12-25T00:10:33.950Z,5.07
2022-12-25T00:13:00.540Z,4.92
2022-12-25T00:15:27.187Z,4.92
2022-12-25T00:17:53.782Z,5.02
2022-12-25T00:20:20.488Z,5.10
2022-12-25T00:22:47.058Z,5.14
2022-12-25T00:25:13.680Z,5.03
2022-12-25T00:27:40.305Z,5.07
2022-12-25T00:30:07.940Z,5.02
2022-12-25T00:32:37.878Z,5.22
2022-12-25T00:35:05.722Z,5.20
2022-12-25T00:37:32.503Z,4.99
2022-12-25T00:39:59.095Z,4.89
2022-12-25T00:42:25.694Z,4.92
2022-12-25T00:44:52.401Z,4.88
2022-12-25T00:47:19.379Z,4.99
2022-12-25T00:49:46.066Z,4.92
2022-12-25T00:52:12.684Z,5.03
2022-12-25T00:54:39.357Z,5.31
2022-12-25T00:57:07.109Z,5.42
2022-12-25T00:59:34.968Z,5.04
2022-12-25T01:02:01.747Z,5.09
2022-12-25T01:04:28.358Z,5.15
2022-12-25T01:06:54.957Z,5.68
2022-12-25T01:09:21.630Z,6.14
2022-12-25T01:11:48.243Z,6.02
2022-12-25T01:14:15.156Z,5.56
2022-12-25T01:16:41.878Z,5.64
2022-12-25T01:19:11.174Z,5.70
2022-12-25T01:21:38.102Z,5.32
2022-12-25T01:24:04.898Z,5.36
2022-12-25T01:26:31.475Z,5.19
2022-12-25T01:28:58.058Z,5.39
2022-12-25T01:31:26.064Z,5.37
2022-12-25T01:33:52.757Z,5.26
2022-12-25T01:36:21.029Z,5.19
2022-12-25T01:38:48.346Z,4.98
2022-12-25T01:41:17.724Z,5.17
2022-12-25T01:44:16.558Z,5.21
2022-12-25T01:46:43.927Z,5.18
2022-12-25T01:49:14.723Z,5.89
2022-12-25T01:51:49.913Z,5.73
2022-12-25T01:54:25.483Z,5.18
2022-12-25T01:56:55.381Z,5.02
2022-12-25T01:59:25.071Z,5.08
2022-12-25T02:01:51.887Z,5.41
2022-12-25T02:04:26.667Z,5.33
2022-12-25T02:06:53.480Z,5.10
2022-12-25T02:09:20.081Z,4.93
2022-12-25T02:11:47.156Z,4.81
2022-12-25T02:14:13.829Z,4.80
2022-12-25T02:16:56.514Z,4.62
2022-12-25T02:19:34.375Z,4.58
2022-12-25T02:22:27.824Z,4.97
2022-12-25T02:25:03.083Z,4.80
2022-12-25T02:28:03.463Z,4.50
2022-12-25T02:30:36.480Z,4.74
2022-12-25T02:33:14.740Z,4.35
2022-12-25T02:35:46.522Z,4.33
2022-12-25T02:38:31.977Z,4.28
2022-12-25T02:41:05.885Z,4.41
2022-12-25T02:43:38.066Z,4.37
2022-12-25T02:46:09.259Z,4.65
2022-12-25T02:48:51.326Z,4.67
2022-12-25T02:51:21.674Z,4.41
2022-12-25T02:53:51.708Z,4.38
2022-12-25T02:56:20.316Z,4.22
2022-12-25T02:58:49.238Z,4.29
2022-12-25T03:01:19.869Z,4.36
2022-12-25T03:03:50.422Z,4.45
2022-12-25T03:06:19.767Z,4.50
2022-12-25T03:08:50.595Z,4.79
2022-12-25T03:11:17.217Z,4.99
2022-12-25T03:13:48.791Z,5.11
2022-12-25T03:16:15.631Z,4.96
2022-12-25T03:18:42.800Z,4.62
2022-12-25T03:21:09.477Z,4.54
2022-12-25T03:23:39.360Z,4.68
2022-12-25T03:26:07.546Z,4.56
2022-12-25T03:28:34.129Z,4.64
2022-12-25T03:31:21.947Z,4.28
2022-12-25T03:34:25.650Z,4.33
2022-12-25T03:36:58.276Z,4.46
2022-12-25T03:39:36.283Z,4.29
2022-12-25T03:42:06.375Z,4.22
2022-12-25T03:45:12.354Z,4.16
2022-12-25T03:47:44.721Z,4.04
2022-12-25T03:50:22.262Z,4.13
2022-12-25T03:52:51.608Z,4.01
2022-12-25T03:55:19.737Z,3.99
2022-12-25T03:57:46.381Z,3.94
2022-12-25T04:00:13.375Z,4.01
2022-12-25T04:02:40.112Z,4.17
2022-12-25T04:05:07.434Z,3.79
2022-12-25T04:07:34.177Z,3.98
2022-12-25T04:10:00.778Z,4.04
2022-12-25T04:12:27.355Z,3.47
2022-12-25T04:14:54.402Z,3.97
2022-12-25T04:17:21.036Z,4.38
2022-12-25T04:19:47.645Z,3.53
2022-12-25T04:22:14.225Z,3.46
2022-12-25T04:24:40.804Z,3.55
2022-12-25T04:27:07.499Z,3.84
2022-12-25T04:29:34.071Z,3.93
2022-12-25T04:32:01.083Z,3.56
2022-12-25T04:34:27.669Z,3.64
2022-12-25T04:36:54.264Z,3.61
2022-12-25T04:39:20.999Z,3.49
2022-12-25T04:41:47.572Z,3.55
2022-12-25T04:44:14.148Z,3.72
2022-12-25T04:46:40.881Z,3.96
2022-12-25T04:49:07.497Z,4.14
2022-12-25T04:51:34.094Z,3.83
2022-12-25T04:54:00.774Z,4.08
2022-12-25T04:56:27.310Z,3.70
2022-12-25T04:58:53.857Z,3.98
2022-12-25T05:01:20.560Z,3.76
2022-12-25T05:03:47.270Z,3.89
2022-12-25T05:06:14.076Z,3.62
2022-12-25T05:08:40.695Z,3.55
2022-12-25T05:11:12.890Z,3.46
2022-12-25T05:13:40.254Z,3.02
2022-12-25T05:16:16.735Z,3.12
2022-12-25T05:18:44.122Z,3.42
2022-12-25T05:21:12.536Z,3.01
2022-12-25T05:23:39.506Z,3.23
2022-12-25T05:26:06.913Z,3.60
2022-12-25T05:28:36.979Z,3.52
2022-12-25T05:31:03.633Z,3.44
2022-12-25T05:33:30.311Z,3.47
2022-12-25T05:35:56.903Z,3.41
2022-12-25T05:38:23.611Z,3.28
2022-12-25T05:40:51.689Z,3.06
2022-12-25T05:43:18.753Z,2.88
2022-12-25T05:45:45.670Z,2.96
2022-12-25T05:48:12.266Z,3.02
2022-12-25T05:50:39.112Z,2.83
2022-12-25T05:53:08.518Z,2.71
2022-12-25T05:55:37.000Z,2.68
2022-12-25T05:58:05.135Z,2.79
2022-12-25T06:00:31.819Z,2.88
2022-12-25T06:02:59.155Z,2.91
2022-12-25T06:05:26.460Z,2.84
2022-12-25T06:07:53.061Z,3.02
2022-12-25T06:10:19.884Z,2.94
2022-12-25T06:12:46.565Z,2.82
2022-12-25T06:15:13.150Z,2.83
2022-12-25T06:17:39.731Z,2.79
2022-12-25T06:20:07.287Z,2.70
2022-12-25T06:22:34.469Z,2.77
2022-12-25T06:25:01.191Z,2.62
2022-12-25T06:27:27.859Z,2.44
2022-12-25T06:29:54.473Z,2.44
2022-12-25T06:32:21.262Z,2.52
2022-12-25T06:34:47.855Z,2.52
2022-12-25T06:37:14.425Z,2.64
2022-12-25T06:39:41.059Z,2.90
2022-12-25T06:42:07.693Z,2.78
2022-12-25T06:44:34.288Z,2.72
2022-12-25T06:47:01.013Z,2.69
2022-12-25T06:49:27.651Z,2.55
2022-12-25T06:51:54.248Z,2.60
2022-12-25T06:54:21.156Z,2.66
2022-12-25T06:56:47.799Z,2.62
2022-12-25T06:59:14.665Z,2.44
2022-12-25T07:01:50.547Z,2.52
2022-12-25T07:04:25.820Z,2.57
2022-12-25T07:06:52.839Z,2.73
2022-12-25T07:09:19.441Z,2.59
2022-12-25T07:11:46.019Z,2.94
2022-12-25T07:14:24.128Z,2.65
2022-12-25T07:16:51.409Z,2.47
2022-12-25T07:19:18.137Z,3.07
2022-12-25T07:21:44.777Z,3.14
2022-12-25T07:24:11.405Z,3.31
2022-12-25T07:26:38.015Z,3.30
2022-12-25T07:29:04.711Z,3.14
2022-12-25T07:31:31.404Z,2.89
2022-12-25T07:33:58.041Z,2.89
2022-12-25T07:36:24.653Z,3.16
2022-12-25T07:38:51.280Z,3.26
2022-12-25T07:41:18.052Z,3.06
2022-12-25T07:43:44.659Z,3.12
2022-12-25T07:46:11.518Z,3.09
2022-12-25T07:48:38.998Z,3.07
2022-12-25T07:51:07.804Z,3.11
2022-12-25T07:53:36.315Z,2.91
2022-12-25T07:56:06.381Z,2.89
2022-12-25T07:58:34.045Z,3.19
2022-12-25T08:01:10.528Z,3.59
2022-12-25T08:03:38.140Z,3.90
2022-12-25T08:06:07.424Z,4.09
2022-12-25T08:08:34.869Z,3.79
2022-12-25T08:11:01.579Z,3.45
2022-12-25T08:13:33.061Z,3.67
2022-12-25T08:16:01.707Z,4.61
2022-12-25T08:18:30.406Z,5.00
2022-12-25T08:21:02.509Z,4.86
2022-12-25T08:23:29.135Z,5.10
2022-12-25T08:26:05.402Z,5.12
2022-12-25T08:28:34.555Z,5.01
2022-12-25T08:31:18.241Z,4.75
2022-12-25T08:33:46.155Z,4.62
2022-12-25T08:36:15.508Z,4.37
2022-12-25T08:38:42.331Z,4.11
2022-12-25T08:41:10.097Z,3.99
2022-12-25T08:43:37.069Z,3.99
2022-12-25T08:46:03.926Z,3.99
2022-12-25T08:48:30.661Z,3.95
2022-12-25T08:50:57.722Z,4.01
2022-12-25T08:53:24.645Z,4.26
2022-12-25T08:56:01.953Z,4.36
2022-12-25T08:58:28.767Z,4.79
2022-12-25T09:00:56.275Z,4.80
2022-12-25T09:03:23.411Z,5.29
2022-12-25T09:05:50.518Z,5.30
2022-12-25T09:08:17.333Z,4.66
2022-12-25T09:10:43.990Z,4.36
2022-12-25T09:13:10.612Z,5.04
2022-12-25T09:15:38.552Z,4.91
2022-12-25T09:18:05.945Z,5.00
2022-12-25T09:20:32.701Z,4.94
2022-12-25T09:22:59.330Z,5.48
2022-12-25T09:25:26.250Z,5.16
2022-12-25T09:27:53.081Z,5.10
2022-12-25T09:30:19.721Z,5.25
2022-12-25T09:32:46.313Z,5.30
2022-12-25T09:35:13.155Z,5.36
2022-12-25T09:37:39.913Z,5.08
2022-12-25T09:40:07.549Z,5.02
2022-12-25T09:42:34.198Z,5.82
2022-12-25T09:45:05.070Z,6.00
2022-12-25T09:47:35.826Z,5.98
2022-12-25T09:50:12.750Z,6.02
2022-12-25T09:52:51.702Z,5.89
2022-12-25T09:55:24.646Z,6.07
2022-12-25T09:57:56.819Z,6.63
2022-12-25T10:00:26.170Z,6.46
2022-12-25T10:03:20.633Z,6.53
2022-12-25T10:06:08.748Z,6.41
2022-12-25T10:08:47.363Z,6.87
2022-12-25T10:11:31.981Z,7.24
2022-12-25T10:14:18.872Z,7.20
2022-12-25T10:16:51.421Z,7.33
2022-12-25T10:20:02.133Z,7.50
2022-12-25T10:22:38.133Z,7.54
2022-12-25T10:25:07.612Z,7.68
2022-12-25T10:27:38.024Z,7.53
2022-12-25T10:30:20.110Z,7.86
2022-12-25T10:32:48.071Z,7.79
2022-12-25T10:35:17.588Z,7.88
2022-12-25T10:37:49.005Z,7.70
2022-12-25T10:40:31.290Z,7.68
2022-12-25T10:43:21.093Z,7.88
2022-12-25T10:45:49.266Z,8.27
2022-12-25T10:48:30.686Z,8.07
2022-12-25T10:50:57.350Z,8.11
2022-12-25T10:53:37.271Z,8.22
2022-12-25T10:56:06.093Z,8.63
2022-12-25T10:58:34.096Z,8.26
2022-12-25T11:01:06.987Z,8.20
2022-12-25T11:03:40.173Z,8.72
2022-12-25T11:06:22.085Z,8.56
2022-12-25T11:08:53.832Z,8.57
2022-12-25T11:11:21.080Z,8.95
2022-12-25T11:13:51.405Z,9.05
2022-12-25T11:16:31.194Z,9.23
2022-12-25T11:18:59.288Z,9.44
2022-12-25T11:21:32.742Z,9.72
2022-12-25T11:24:06.485Z,10.05
2022-12-25T11:26:47.821Z,10.22
2022-12-25T11:29:24.622Z,9.64
2022-12-25T11:31:53.710Z,9.52
2022-12-25T11:34:37.225Z,9.48
2022-12-25T11:37:05.496Z,9.74
2022-12-25T11:39:35.648Z,10.57
2022-12-25T11:42:29.589Z,10.51
2022-12-25T11:45:18.595Z,10.50
2022-12-25T11:47:54.604Z,10.63
2022-12-25T11:50:28.748Z,10.93
2022-12-25T11:52:55.598Z,11.00
2022-12-25T11:55:41.848Z,11.02
2022-12-25T11:58:41.989Z,11.07
2022-12-25T12:01:43.549Z,11.61
2022-12-25T12:04:42.666Z,11.34
2022-12-25T12:07:32.902Z,11.30
2022-12-25T12:10:11.294Z,11.44
2022-12-25T12:12:56.349Z,11.45
2022-12-25T12:15:42.458Z,11.43
2022-12-25T12:18:28.027Z,11.37
2022-12-25T12:21:04.774Z,11.05
2022-12-25T12:23:35.910Z,11.22
2022-12-25T12:26:03.530Z,11.50
2022-12-25T12:28:43.949Z,11.50
2022-12-25T12:31:10.690Z,11.55
2022-12-25T12:33:55.046Z,11.82
2022-12-25T12:36:34.645Z,12.11
2022-12-25T12:39:02.488Z,11.83
2022-12-25T12:42:01.271Z,11.42
2022-12-25T12:44:32.810Z,11.31
2022-12-25T12:46:59.533Z,10.83
2022-12-25T12:49:30.989Z,11.04
2022-12-25T12:52:33.589Z,11.15
2022-12-25T12:55:07.089Z,10.89
2022-12-25T12:57:36.047Z,10.94
2022-12-25T13:00:09.793Z,10.83
2022-12-25T13:02:43.548Z,11.02
2022-12-25T13:05:27.748Z,10.76
2022-12-25T13:08:16.296Z,10.49
2022-12-25T13:10:49.605Z,10.67
2022-12-25T13:13:24.828Z,10.73
2022-12-25T13:15:52.203Z,10.83
2022-12-25T13:18:19.531Z,10.60
2022-12-25T13:20:54.306Z,10.49
2022-12-25T13:23:32.877Z,10.64
2022-12-25T13:26:06.026Z,10.44
2022-12-25T13:28:36.895Z,10.53
2022-12-25T13:31:20.217Z,10.84
2022-12-25T13:34:27.412Z,10.68
2022-12-25T13:36:54.744Z,10.47
2022-12-25T13:39:22.801Z,10.99
2022-12-25T13:41:52.103Z,10.96
2022-12-25T13:44:22.756Z,10.61
2022-12-25T13:46:49.427Z,10.33
2022-12-25T13:49:19.243Z,10.05
2022-12-25T13:51:46.684Z,10.08
2022-12-25T13:54:14.947Z,10.09
2022-12-25T13:56:53.672Z,10.00
2022-12-25T13:59:23.325Z,9.94
2022-12-25T14:01:51.922Z,10.12
2022-12-25T14:04:23.854Z,10.30
2022-12-25T14:06:52.230Z,10.00
2022-12-25T14:09:19.699Z,10.07
2022-12-25T14:11:50.582Z,9.81
2022-12-25T14:14:25.132Z,10.20
2022-12-25T14:16:56.453Z,10.61
2022-12-25T14:19:34.083Z,10.47
2022-12-25T14:22:11.919Z,10.17
2022-12-25T14:24:40.259Z,9.97
2022-12-25T14:27:21.465Z,9.77
2022-12-25T14:29:51.477Z,9.63
2022-12-25T14:32:24.327Z,9.78
2022-12-25T14:34:55.742Z,9.63
2022-12-25T14:37:27.598Z,9.43
2022-12-25T14:40:00.528Z,9.10
2022-12-25T14:42:30.623Z,9.31
2022-12-25T14:45:00.312Z,9.36
2022-12-25T14:47:27.752Z,8.95
2022-12-25T14:49:54.604Z,9.15
2022-12-25T14:52:27.946Z,9.13
2022-12-25T14:55:01.553Z,9.25
2022-12-25T14:57:36.799Z,9.05
2022-12-25T15:00:23.744Z,8.97
2022-12-25T15:02:52.217Z,8.96
2022-12-25T15:05:26.751Z,9.12
2022-12-25T15:08:08.753Z,9.03
2022-12-25T15:13:23.126Z,8.89
2022-12-25T15:16:06.618Z,8.79
2022-12-25T15:18:38.894Z,8.76
2022-12-25T15:21:05.658Z,8.68
2022-12-25T15:23:32.321Z,8.79
2022-12-25T15:25:58.992Z,8.75
2022-12-25T15:28:25.621Z,8.79
2022-12-25T15:30:52.307Z,8.55
2022-12-25T15:33:19.334Z,8.61
2022-12-25T15:35:46.048Z,8.71
2022-12-25T15:38:13.541Z,8.67
2022-12-25T15:40:40.982Z,8.40
2022-12-25T15:43:30.929Z,8.77
2022-12-25T15:45:57.952Z,8.69
2022-12-25T15:48:24.584Z,8.69
2022-12-25T15:50:51.168Z,8.58
2022-12-25T15:53:17.799Z,8.40
2022-12-25T15:55:44.454Z,8.32
2022-12-25T15:58:14.044Z,8.48
2022-12-25T16:00:40.628Z,8.45
2022-12-25T16:03:07.508Z,8.60
2022-12-25T16:05:34.451Z,8.52
2022-12-25T16:08:01.055Z,8.51
2022-12-25T16:10:29.193Z,8.65
2022-12-25T16:12:59.211Z,8.57
2022-12-25T16:15:25.799Z,8.62
2022-12-25T16:17:52.440Z,8.87
2022-12-25T16:20:19.019Z,8.72
2022-12-25T16:22:45.626Z,8.64
2022-12-25T16:25:17.914Z,8.62
2022-12-25T16:27:44.582Z,8.47
2022-12-25T16:30:13.955Z,8.58
2022-12-25T16:32:40.660Z,8.59
2022-12-25T16:35:07.549Z,8.59
2022-12-25T16:37:34.917Z,8.41
2022-12-25T16:40:02.414Z,8.40
2022-12-25T16:42:29.065Z,8.40
2022-12-25T16:44:55.637Z,8.34
2022-12-25T16:47:22.319Z,8.56
2022-12-25T16:49:48.900Z,8.51
2022-12-25T16:52:15.500Z,8.40
2022-12-25T16:54:42.099Z,8.09
2022-12-25T16:57:08.711Z,8.16
2022-12-25T16:59:35.338Z,8.20
2022-12-25T17:02:02.236Z,8.28
2022-12-25T17:04:28.937Z,8.12
2022-12-25T17:06:56.045Z,8.05
2022-12-25T17:09:22.659Z,8.07
2022-12-25T17:11:49.246Z,8.07
2022-12-25T17:14:16.133Z,8.19
2022-12-25T17:16:42.850Z,8.27
2022-12-25T17:19:18.939Z,8.15
2022-12-25T17:21:46.221Z,8.20
2022-12-25T17:24:14.034Z,8.24
2022-12-25T17:26:40.919Z,8.34
2022-12-25T17:29:08.475Z,8.31
2022-12-25T17:31:35.277Z,8.16
2022-12-25T17:34:02.782Z,8.21
2022-12-25T17:36:30.394Z,8.07
2022-12-25T17:38:59.334Z,8.26
2022-12-25T17:41:26.056Z,8.27
2022-12-25T17:43:52.717Z,8.27
2022-12-25T17:46:23.143Z,8.18
2022-12-25T17:48:50.646Z,8.28
2022-12-25T17:51:22.007Z,8.17
2022-12-25T17:53:52.001Z,8.01
2022-12-25T17:56:19.956Z,7.95
2022-12-25T17:58:51.669Z,7.98
2022-12-25T18:01:19.106Z,7.93
2022-12-25T18:03:46.241Z,7.94
2022-12-25T18:06:15.999Z,8.00
2022-12-25T18:08:44.431Z,8.07
2022-12-25T18:11:17.264Z,8.16
2022-12-25T18:13:46.363Z,8.04
2022-12-25T18:16:13.717Z,7.87
2022-12-25T18:18:42.379Z,7.81
2022-12-25T18:21:11.988Z,7.79
2022-12-25T18:23:39.439Z,7.90
2022-12-25T18:26:08.869Z,7.80
2022-12-25T18:28:35.815Z,7.69
2022-12-25T18:31:08.595Z,7.65
2022-12-25T18:33:35.341Z,7.73
2022-12-25T18:36:01.945Z,7.90
2022-12-25T18:38:28.707Z,7.98
2022-12-25T18:40:55.482Z,7.95
2022-12-25T18:43:22.113Z,7.98
2022-12-25T18:46:09.106Z,7.91
2022-12-25T18:48:36.150Z,7.78
2022-12-25T18:51:06.279Z,7.88
2022-12-25T18:53:33.536Z,7.87
2022-12-25T18:56:12.803Z,7.94
2022-12-25T18:58:39.586Z,7.89
2022-12-25T19:01:13.207Z,8.01
2022-12-25T19:03:39.944Z,7.70
2022-12-25T19:06:06.853Z,7.73
2022-12-25T19:08:33.509Z,7.86
2022-12-25T19:11:00.138Z,7.93
2022-12-25T19:13:26.771Z,7.94
2022-12-25T19:15:58.232Z,7.93
2022-12-25T19:18:25.051Z,7.71
2022-12-25T19:20:51.631Z,7.75
2022-12-25T19:23:18.495Z,7.80
2022-12-25T19:25:45.194Z,7.97
2022-12-25T19:28:11.799Z,8.00
2022-12-25T19:30:38.599Z,8.05
2022-12-25T19:33:05.445Z,7.93
2022-12-25T19:35:32.057Z,7.92
2022-12-25T19:37:58.651Z,8.06
2022-12-25T19:40:25.351Z,7.92
2022-12-25T19:42:53.149Z,7.94
2022-12-25T19:45:19.823Z,7.95
2022-12-25T19:47:46.469Z,7.95
2022-12-25T19:50:13.061Z,7.73
2022-12-25T19:52:39.701Z,7.58
2022-12-25T19:55:06.908Z,7.68
2022-12-25T19:57:33.509Z,7.58
2022-12-25T20:00:00.146Z,7.80
2022-12-25T20:02:26.883Z,7.70
2022-12-25T20:04:53.731Z,7.66
2022-12-25T20:07:20.299Z,7.55
2022-12-25T20:09:46.915Z,7.72
2022-12-25T20:12:13.558Z,7.96
2022-12-25T20:14:40.194Z,7.83
2022-12-25T20:17:12.196Z,7.89
2022-12-25T20:19:42.473Z,7.93
2022-12-25T20:22:09.068Z,7.98
2022-12-25T20:24:35.701Z,7.98
2022-12-25T20:27:02.312Z,7.85
2022-12-25T20:29:28.969Z,7.78
2022-12-25T20:31:55.660Z,7.71
2022-12-25T20:34:22.316Z,7.94
2022-12-25T20:36:48.923Z,8.21
2022-12-25T20:39:15.561Z,7.85
2022-12-25T20:41:42.323Z,7.54
2022-12-25T20:44:09.290Z,7.41
2022-12-25T20:46:36.687Z,7.31
2022-12-25T20:49:04.098Z,7.31
2022-12-25T20:51:30.753Z,7.41
2022-12-25T20:53:57.760Z,7.48
2022-12-25T20:56:26.868Z,7.63
2022-12-25T20:58:55.768Z,7.37
2022-12-25T21:01:22.701Z,7.39
2022-12-25T21:03:50.027Z,7.19
2022-12-25T21:06:16.868Z,7.03
2022-12-25T21:08:43.546Z,6.98
2022-12-25T21:11:11.042Z,7.05
2022-12-25T21:13:39.671Z,7.42
2022-12-25T21:16:12.190Z,7.21
2022-12-25T21:18:38.982Z,7.32
2022-12-25T21:21:06.323Z,7.43
2022-12-25T21:23:34.987Z,7.44
2022-12-25T21:26:16.609Z,7.58
2022-12-25T21:28:43.370Z,7.72
2022-12-25T21:31:10.583Z,7.41
2022-12-25T21:33:37.460Z,7.27
2022-12-25T21:36:10.830Z,7.41
2022-12-25T21:38:38.910Z,7.12
2022-12-25T21:41:10.837Z,7.26
2022-12-25T21:43:38.851Z,7.38
2022-12-25T21:46:10.556Z,6.94
2022-12-25T21:48:37.892Z,7.13
2022-12-25T21:51:08.156Z,7.22
2022-12-25T21:53:34.736Z,7.28
2022-12-25T21:56:01.590Z,7.30
2022-12-25T21:58:28.793Z,7.40
2022-12-25T22:00:55.519Z,7.21
2022-12-25T22:03:23.747Z,7.45
2022-12-25T22:05:50.435Z,7.69
2022-12-25T22:08:17.072Z,7.57
2022-12-25T22:10:43.707Z,7.64
2022-12-25T22:13:10.376Z,7.37
2022-12-25T22:15:37.199Z,7.57
2022-12-25T22:18:03.935Z,7.63
2022-12-25T22:20:36.685Z,7.52
2022-12-25T22:23:04.113Z,7.72
2022-12-25T22:25:30.720Z,7.40
2022-12-25T22:27:57.491Z,7.51
2022-12-25T22:30:26.455Z,7.53
2022-12-25T22:32:53.452Z,7.55
2022-12-25T22:35:20.786Z,7.38
2022-12-25T22:37:47.612Z,7.59
2022-12-25T22:40:16.623Z,7.56
2022-12-25T22:42:43.386Z,7.62
2022-12-25T22:45:10.509Z,7.65
2022-12-25T22:47:37.185Z,7.50
2022-12-25T22:50:04.571Z,7.34
2022-12-25T22:52:31.255Z,7.45
2022-12-25T22:54:57.839Z,7.48
2022-12-25T22:57:24.453Z,7.46
2022-12-25T22:59:54.168Z,7.52
2022-12-25T23:02:21.293Z,7.42
2022-12-25T23:04:48.098Z,7.37
2022-12-25T23:07:14.748Z,7.45
2022-12-25T23:09:42.635Z,7.43
2022-12-25T23:12:09.931Z,7.39
2022-12-25T23:14:36.518Z,7.64
2022-12-25T23:17:03.156Z,7.33
2022-12-25T23:19:29.889Z,7.38
2022-12-25T23:21:56.536Z,7.40
2022-12-25T23:24:23.305Z,7.38
2022-12-25T23:26:49.883Z,7.25
2022-12-25T23:29:16.544Z,7.42
2022-12-25T23:31:43.689Z,7.26
2022-12-25T23:34:10.663Z,7.61
2022-12-25T23:36:37.376Z,7.45
2022-12-25T23:39:09.685Z,7.42
2022-12-25T23:41:38.926Z,7.36
2022-12-25T23:44:05.629Z,7.44
2022-12-25T23:46:32.335Z,7.49
2022-12-25T23:48:58.997Z,7.68
2022-12-25T23:51:25.757Z,7.57
2022-12-25T23:53:52.392Z,7.50
2022-12-25T23:56:19.030Z,7.60
2022-12-25T23:58:45.655Z,7.48
